Terminal Aerodrome Forecast
Issued by NWS Wilmington, OH

Home | Current Version | Previous Version | Text Only | Print | Product List | Glossary On
Versions: 1 2 3 4 5 6 7 8 9 10 11 12 13 14 15 16 17 18 19 20 21 22 23 24 25
000
FTUS41 KILN 211743
TAFCVG
TAF
KCVG 211743Z 2118/2224 20009KT P6SM VCSH OVC016
     FM220400 18006KT P6SM OVC022
     FM220800 18007KT P6SM OVC035 WS020/21040KT
     FM221400 17010G20KT P6SM OVC100
     FM221900 18013G25KT 4SM -SHRA BR OVC035=

USA.gov is the U.S. government's official web portal to all federal, state and local government web resources and services.